createdAt,value
2023-05-09T00:00:05.683Z,17.56
2023-05-09T00:02:32.522Z,17.56
2023-05-09T00:04:59.335Z,17.54
2023-05-09T00:07:25.875Z,17.62
2023-05-09T00:09:53.956Z,17.74
2023-05-09T00:12:21.864Z,17.67
2023-05-09T00:14:48.391Z,17.61
2023-05-09T00:17:14.982Z,17.64
2023-05-09T00:19:41.559Z,17.69
2023-05-09T00:22:08.134Z,17.74
2023-05-09T00:24:35.028Z,17.67
2023-05-09T00:27:03.043Z,17.62
2023-05-09T00:29:29.770Z,17.57
2023-05-09T00:31:56.370Z,17.58
2023-05-09T00:34:23.058Z,17.61
2023-05-09T00:36:49.610Z,17.56
2023-05-09T00:39:16.207Z,17.41
2023-05-09T00:41:43.778Z,17.47
2023-05-09T00:44:11.760Z,17.43
2023-05-09T00:46:38.641Z,17.41
2023-05-09T00:49:05.547Z,17.39
2023-05-09T00:51:32.995Z,17.39
2023-05-09T00:53:59.581Z,17.51
2023-05-09T00:56:26.143Z,17.49
2023-05-09T00:58:52.766Z,17.41
2023-05-09T01:01:21.004Z,17.32
2023-05-09T01:03:47.874Z,17.20
2023-05-09T01:06:22.622Z,17.30
2023-05-09T01:08:57.676Z,17.27
2023-05-09T01:11:31.401Z,17.38
2023-05-09T01:14:07.865Z,17.26
2023-05-09T01:16:41.334Z,17.37
2023-05-09T01:19:27.486Z,17.39
2023-05-09T01:21:56.320Z,17.30
2023-05-09T01:24:45.657Z,17.28
2023-05-09T01:27:28.564Z,17.24
2023-05-09T01:29:57.902Z,17.25
2023-05-09T01:32:26.691Z,17.17
2023-05-09T01:34:56.421Z,17.20
2023-05-09T01:37:29.914Z,17.20
2023-05-09T01:39:59.941Z,17.22
2023-05-09T01:42:30.458Z,17.23
2023-05-09T01:44:59.304Z,17.26
2023-05-09T01:47:27.034Z,17.30
2023-05-09T01:49:55.114Z,17.30
2023-05-09T01:52:23.611Z,17.43
2023-05-09T01:54:51.312Z,17.52
2023-05-09T01:57:19.819Z,17.52
2023-05-09T01:59:48.595Z,17.63
2023-05-09T02:02:17.275Z,17.75
2023-05-09T02:04:45.155Z,17.63
2023-05-09T02:07:12.749Z,17.56
2023-05-09T02:09:39.430Z,17.53
2023-05-09T02:12:06.761Z,17.59
2023-05-09T02:14:33.353Z,17.65
2023-05-09T02:17:00.898Z,17.72
2023-05-09T02:19:28.972Z,17.81
2023-05-09T02:21:55.667Z,17.85
2023-05-09T02:24:22.228Z,17.88
2023-05-09T02:26:49.037Z,17.83
2023-05-09T02:29:19.603Z,17.86
2023-05-09T02:31:48.577Z,17.77
2023-05-09T02:34:16.663Z,17.82
2023-05-09T02:36:45.314Z,17.94
2023-05-09T02:39:12.351Z,17.93
2023-05-09T02:41:38.889Z,17.73
2023-05-09T02:44:05.544Z,17.68
2023-05-09T02:46:32.226Z,17.64
2023-05-09T02:48:59.348Z,17.87
2023-05-09T02:51:25.784Z,17.79
2023-05-09T02:53:53.783Z,17.94
2023-05-09T02:56:20.274Z,17.97
2023-05-09T02:58:46.782Z,18.03
2023-05-09T03:01:13.387Z,18.07
2023-05-09T03:03:40.067Z,17.93
2023-05-09T03:06:07.529Z,17.78
2023-05-09T03:08:34.076Z,17.92
2023-05-09T03:11:02.026Z,17.76
2023-05-09T03:13:28.783Z,17.71
2023-05-09T03:15:55.398Z,17.90
2023-05-09T03:18:21.993Z,17.93
2023-05-09T03:20:48.685Z,17.92
2023-05-09T03:23:15.260Z,17.93
2023-05-09T03:25:41.858Z,17.99
2023-05-09T03:28:09.694Z,18.03
2023-05-09T03:30:36.229Z,17.95
2023-05-09T03:33:02.808Z,17.96
2023-05-09T03:35:29.334Z,18.09
2023-05-09T03:37:56.089Z,18.04
2023-05-09T03:40:22.668Z,18.10
2023-05-09T03:42:49.232Z,18.05
2023-05-09T03:45:17.201Z,18.01
2023-05-09T03:47:43.722Z,18.02
2023-05-09T03:50:10.719Z,18.01
2023-05-09T03:52:37.261Z,18.06
2023-05-09T03:55:04.206Z,17.91
2023-05-09T03:57:30.847Z,18.02
2023-05-09T03:59:57.426Z,17.96
2023-05-09T04:02:25.751Z,18.02
2023-05-09T04:04:52.564Z,18.07
2023-05-09T04:07:19.518Z,18.14
2023-05-09T04:09:46.299Z,17.84
2023-05-09T04:12:12.924Z,18.00
2023-05-09T04:14:39.486Z,18.08
2023-05-09T04:17:06.147Z,17.91
2023-05-09T04:19:34.186Z,18.04
2023-05-09T04:22:00.596Z,18.05
2023-05-09T04:24:27.152Z,18.06
2023-05-09T04:26:53.791Z,18.17
2023-05-09T04:29:20.305Z,18.05
2023-05-09T04:31:46.946Z,18.20
2023-05-09T04:34:13.616Z,18.17
2023-05-09T04:36:41.667Z,18.15
2023-05-09T04:39:08.319Z,18.29
2023-05-09T04:41:34.961Z,18.33
2023-05-09T04:44:01.663Z,18.22
2023-05-09T04:46:28.237Z,18.31
2023-05-09T04:48:54.976Z,18.35
2023-05-09T04:51:21.495Z,18.36
2023-05-09T04:53:49.392Z,18.49
2023-05-09T04:56:16.030Z,18.37
2023-05-09T04:58:42.583Z,18.57
2023-05-09T05:01:09.359Z,18.46
2023-05-09T05:03:35.924Z,18.49
2023-05-09T05:06:02.586Z,18.59
2023-05-09T05:08:29.236Z,18.74
2023-05-09T05:10:57.387Z,18.79
2023-05-09T05:13:24.640Z,18.87
2023-05-09T05:15:51.334Z,18.83
2023-05-09T05:18:18.197Z,18.94
2023-05-09T05:20:44.774Z,19.01
2023-05-09T05:23:11.339Z,19.10
2023-05-09T05:25:38.299Z,19.12
2023-05-09T05:28:06.364Z,19.41
2023-05-09T05:30:34.318Z,19.37
2023-05-09T05:33:01.311Z,19.51
2023-05-09T05:35:28.044Z,19.41
2023-05-09T05:37:54.690Z,19.49
2023-05-09T05:40:21.265Z,19.63
2023-05-09T05:42:47.855Z,19.84
2023-05-09T05:45:16.287Z,19.79
2023-05-09T05:47:43.118Z,19.86
2023-05-09T05:50:10.317Z,20.48
2023-05-09T05:52:36.756Z,21.06
2023-05-09T05:55:03.729Z,21.24
2023-05-09T05:57:30.411Z,21.18
2023-05-09T05:59:57.004Z,21.23
2023-05-09T06:02:25.037Z,21.20
2023-05-09T06:04:53.308Z,21.37
2023-05-09T06:07:20.507Z,21.59
2023-05-09T06:09:47.243Z,21.72
2023-05-09T06:12:13.862Z,21.92
2023-05-09T06:14:40.449Z,21.79
2023-05-09T06:17:07.211Z,22.20
2023-05-09T06:19:35.109Z,22.85
2023-05-09T06:22:01.685Z,23.66
2023-05-09T06:24:35.765Z,24.13
2023-05-09T06:27:03.875Z,24.43
2023-05-09T06:29:30.450Z,24.77
2023-05-09T06:31:57.152Z,25.06
2023-05-09T06:34:23.728Z,25.36
2023-05-09T06:36:51.848Z,25.78
2023-05-09T06:39:18.522Z,26.12
2023-05-09T06:41:45.182Z,25.70
2023-05-09T06:44:11.813Z,25.93
2023-05-09T06:46:38.413Z,25.82
2023-05-09T06:49:05.203Z,25.82
2023-05-09T06:51:33.833Z,26.49
2023-05-09T06:54:01.722Z,26.07
2023-05-09T06:56:28.398Z,26.04
2023-05-09T06:58:55.108Z,25.63
2023-05-09T07:01:21.654Z,25.23
2023-05-09T07:03:48.340Z,24.91
2023-05-09T07:06:14.918Z,24.79
2023-05-09T07:08:41.486Z,24.49
2023-05-09T07:11:12.486Z,24.49
2023-05-09T07:13:39.037Z,24.55
2023-05-09T07:16:06.419Z,24.96
2023-05-09T07:18:33.124Z,25.11
2023-05-09T07:20:59.720Z,25.27
2023-05-09T07:23:26.344Z,25.40
2023-05-09T07:25:56.543Z,25.29
2023-05-09T07:28:24.836Z,25.55
2023-05-09T07:30:51.606Z,25.60
2023-05-09T07:33:18.181Z,25.44
2023-05-09T07:35:44.697Z,25.44
2023-05-09T07:38:11.367Z,25.24
2023-05-09T07:40:37.918Z,25.77
2023-05-09T07:43:04.643Z,25.77
2023-05-09T07:45:32.818Z,26.06
2023-05-09T07:47:59.473Z,25.60
2023-05-09T07:50:26.101Z,25.72
2023-05-09T07:52:52.764Z,25.26
2023-05-09T07:55:19.616Z,25.07
2023-05-09T07:57:46.168Z,25.29
2023-05-09T08:00:14.266Z,25.52
2023-05-09T08:02:42.341Z,25.59
2023-05-09T08:05:09.625Z,25.51
2023-05-09T08:07:36.178Z,25.08
2023-05-09T08:10:03.024Z,25.20
2023-05-09T08:12:29.601Z,25.15
2023-05-09T08:14:56.196Z,25.10
2023-05-09T08:17:22.793Z,24.97
2023-05-09T08:19:50.763Z,25.21
2023-05-09T08:22:17.516Z,25.41
2023-05-09T08:24:44.177Z,26.22
2023-05-09T08:27:10.822Z,26.45
2023-05-09T08:29:37.373Z,26.72
2023-05-09T08:32:04.416Z,26.91
2023-05-09T08:34:31.148Z,26.82
2023-05-09T08:36:59.123Z,27.13
2023-05-09T08:39:25.790Z,27.56
2023-05-09T08:41:56.623Z,27.68
2023-05-09T08:44:23.483Z,27.91
2023-05-09T08:46:52.798Z,28.09
2023-05-09T08:49:21.143Z,28.72
2023-05-09T08:51:48.464Z,28.59
2023-05-09T08:54:17.010Z,28.64
2023-05-09T08:56:43.896Z,28.66
2023-05-09T08:59:10.541Z,28.98
2023-05-09T09:01:37.298Z,28.77
2023-05-09T09:04:06.091Z,29.02
2023-05-09T09:06:33.629Z,29.54
2023-05-09T09:09:01.352Z,29.00
2023-05-09T09:11:30.236Z,29.35
2023-05-09T09:14:00.984Z,29.38
2023-05-09T09:16:29.202Z,29.50
2023-05-09T09:18:58.514Z,29.71
2023-05-09T09:21:25.868Z,29.17
2023-05-09T09:23:55.010Z,28.67
2023-05-09T09:26:21.638Z,28.75
2023-05-09T09:28:49.609Z,28.79
2023-05-09T09:31:20.178Z,29.04
2023-05-09T09:33:46.898Z,29.12
2023-05-09T09:36:13.613Z,29.03
2023-05-09T09:38:41.103Z,29.20
2023-05-09T09:41:07.725Z,29.26
2023-05-09T09:43:34.336Z,29.22
2023-05-09T09:46:03.456Z,29.47
2023-05-09T09:48:32.068Z,29.52
2023-05-09T09:51:03.947Z,29.20
2023-05-09T09:53:30.562Z,28.96
2023-05-09T09:55:57.425Z,28.95
2023-05-09T09:58:24.203Z,28.99
2023-05-09T10:01:06.357Z,29.18
2023-05-09T10:03:36.843Z,29.30
2023-05-09T10:06:03.799Z,29.20
2023-05-09T10:08:30.409Z,28.91
2023-05-09T10:10:59.478Z,29.01
2023-05-09T10:13:26.693Z,29.48
2023-05-09T10:15:54.551Z,29.52
2023-05-09T10:18:27.097Z,29.75
2023-05-09T10:20:54.563Z,29.97
2023-05-09T10:23:22.896Z,29.61
2023-05-09T10:25:54.663Z,29.80
2023-05-09T10:28:26.291Z,29.63
2023-05-09T10:30:59.597Z,30.07
2023-05-09T10:33:37.767Z,29.66
2023-05-09T10:36:06.311Z,29.95
2023-05-09T10:38:33.315Z,29.79
2023-05-09T10:41:00.918Z,29.55
2023-05-09T10:43:27.977Z,29.25
2023-05-09T10:45:55.059Z,29.52
2023-05-09T10:48:22.740Z,29.30
2023-05-09T10:50:51.157Z,29.17
2023-05-09T10:53:17.708Z,28.91
2023-05-09T10:55:52.952Z,29.07
2023-05-09T10:58:22.585Z,29.38
2023-05-09T11:00:51.176Z,29.39
2023-05-09T11:03:18.111Z,29.18
2023-05-09T11:05:45.327Z,29.39
2023-05-09T11:08:20.646Z,28.99
2023-05-09T11:10:47.851Z,29.03
2023-05-09T11:13:18.749Z,29.58
2023-05-09T11:16:10.913Z,28.86
2023-05-09T11:18:51.034Z,29.38
2023-05-09T11:21:17.772Z,29.00
2023-05-09T11:23:45.911Z,29.24
2023-05-09T11:26:14.956Z,29.37
2023-05-09T11:29:09.920Z,28.75
2023-05-09T11:32:06.270Z,29.22
2023-05-09T11:34:33.572Z,29.52
2023-05-09T11:37:09.164Z,29.45
2023-05-09T11:39:55.790Z,29.37
2023-05-09T11:42:23.548Z,29.71
2023-05-09T11:44:51.069Z,29.73
2023-05-09T11:47:17.993Z,29.51
2023-05-09T11:49:44.802Z,30.22
2023-05-09T11:52:11.521Z,30.60
2023-05-09T11:54:39.682Z,30.67
2023-05-09T11:57:06.740Z,30.14
2023-05-09T11:59:33.711Z,30.09
2023-05-09T12:02:05.889Z,30.14
2023-05-09T12:04:33.322Z,30.04
2023-05-09T12:07:00.207Z,29.59
2023-05-09T12:09:30.296Z,29.64
2023-05-09T12:11:58.435Z,29.74
2023-05-09T12:14:29.018Z,29.66
2023-05-09T12:16:55.597Z,29.48
2023-05-09T12:19:23.404Z,29.03
2023-05-09T12:21:55.268Z,29.21
2023-05-09T12:24:24.188Z,29.25
2023-05-09T12:26:51.083Z,29.27
2023-05-09T12:29:20.007Z,29.50
2023-05-09T12:31:47.368Z,29.30
2023-05-09T12:34:14.426Z,29.45
2023-05-09T12:36:43.936Z,29.52
2023-05-09T12:39:10.588Z,29.29
2023-05-09T12:41:53.646Z,29.19
2023-05-09T12:44:28.794Z,29.07
2023-05-09T12:47:00.036Z,29.07
2023-05-09T12:49:27.790Z,29.05
2023-05-09T12:51:56.013Z,29.36
2023-05-09T12:54:23.822Z,29.48
2023-05-09T12:56:51.369Z,29.72
2023-05-09T12:59:21.098Z,29.33
2023-05-09T13:01:53.804Z,28.72
2023-05-09T13:04:21.294Z,28.98
2023-05-09T13:06:49.303Z,29.48
2023-05-09T13:09:16.192Z,29.14
2023-05-09T13:11:42.773Z,28.92
2023-05-09T13:14:09.502Z,28.78
2023-05-09T13:16:36.402Z,29.22
2023-05-09T13:19:04.391Z,29.16
2023-05-09T13:21:31.023Z,29.01
2023-05-09T13:23:57.594Z,28.64
2023-05-09T13:26:24.265Z,28.89
2023-05-09T13:28:50.870Z,29.18
2023-05-09T13:31:18.204Z,28.94
2023-05-09T13:33:45.046Z,29.13
2023-05-09T13:36:13.079Z,28.60
2023-05-09T13:38:39.734Z,28.46
2023-05-09T13:41:06.328Z,28.26
2023-05-09T13:43:33.116Z,27.36
2023-05-09T13:45:59.703Z,26.72
2023-05-09T13:48:26.337Z,25.62
2023-05-09T13:50:52.872Z,24.43
2023-05-09T13:53:20.780Z,24.24
2023-05-09T13:55:47.391Z,24.12
2023-05-09T13:58:14.048Z,24.00
2023-05-09T14:00:40.554Z,23.68
2023-05-09T14:03:07.541Z,23.50
2023-05-09T14:05:34.526Z,23.21
2023-05-09T14:08:01.058Z,23.19
2023-05-09T14:10:29.000Z,23.40
2023-05-09T14:12:55.598Z,23.01
2023-05-09T14:15:22.418Z,22.74
2023-05-09T14:17:49.020Z,22.71
2023-05-09T14:20:15.783Z,22.71
2023-05-09T14:22:42.603Z,22.44
2023-05-09T14:25:09.484Z,22.64
2023-05-09T14:27:37.462Z,22.88
2023-05-09T14:30:04.536Z,22.69
2023-05-09T14:32:31.157Z,22.88
2023-05-09T14:34:57.733Z,22.38
2023-05-09T14:37:24.326Z,22.48
2023-05-09T14:39:50.904Z,22.52
2023-05-09T14:42:17.636Z,22.55
2023-05-09T14:44:45.563Z,22.66
2023-05-09T14:47:12.434Z,22.58
2023-05-09T14:49:39.037Z,22.45
2023-05-09T14:52:05.954Z,22.24
2023-05-09T14:54:32.535Z,22.00
2023-05-09T14:56:59.165Z,21.66
2023-05-09T14:59:25.778Z,21.41
2023-05-09T15:01:53.640Z,21.07
2023-05-09T15:04:20.221Z,21.27
2023-05-09T15:06:46.824Z,21.27
2023-05-09T15:09:13.840Z,20.96
2023-05-09T15:11:47.832Z,20.64
2023-05-09T15:14:15.385Z,20.72
2023-05-09T15:16:42.072Z,20.78
2023-05-09T15:19:10.129Z,20.93
2023-05-09T15:21:36.781Z,21.13
2023-05-09T15:24:04.730Z,21.23
2023-05-09T15:26:31.496Z,21.23
2023-05-09T15:28:58.013Z,21.38
2023-05-09T15:31:24.714Z,21.18
2023-05-09T15:33:51.350Z,21.36
2023-05-09T15:36:19.312Z,21.50
2023-05-09T15:38:45.883Z,21.58
2023-05-09T15:41:12.505Z,21.42
2023-05-09T15:43:39.071Z,21.31
2023-05-09T15:46:05.721Z,21.24
2023-05-09T15:48:32.263Z,21.56
2023-05-09T15:50:58.986Z,21.69
2023-05-09T15:53:26.965Z,21.87
2023-05-09T15:55:53.617Z,21.79
2023-05-09T15:58:20.187Z,21.74
2023-05-09T16:00:46.927Z,21.63
2023-05-09T16:03:13.888Z,21.70
2023-05-09T16:05:40.519Z,21.76
2023-05-09T16:08:07.081Z,21.66
2023-05-09T16:10:35.123Z,21.67
2023-05-09T16:13:01.767Z,21.57
2023-05-09T16:15:28.608Z,21.60
2023-05-09T16:17:55.133Z,21.60
2023-05-09T16:20:22.050Z,21.57
2023-05-09T16:22:48.603Z,21.55
2023-05-09T16:25:16.443Z,21.54
2023-05-09T16:27:44.407Z,21.56
2023-05-09T16:30:11.867Z,21.48
2023-05-09T16:32:38.472Z,21.45
2023-05-09T16:35:06.293Z,21.41
2023-05-09T16:37:34.162Z,21.30
2023-05-09T16:40:02.242Z,21.38
2023-05-09T16:42:28.878Z,21.33
2023-05-09T16:44:57.515Z,21.25
2023-05-09T16:47:24.691Z,21.19
2023-05-09T16:49:51.401Z,21.16
2023-05-09T16:52:17.988Z,21.18
2023-05-09T16:54:44.574Z,21.17
2023-05-09T16:57:11.400Z,21.18
2023-05-09T16:59:38.002Z,21.15
2023-05-09T17:02:06.490Z,21.15
2023-05-09T17:04:33.894Z,21.15
2023-05-09T17:07:01.886Z,20.90
2023-05-09T17:09:28.453Z,20.83
2023-05-09T17:11:55.062Z,20.70
2023-05-09T17:14:21.626Z,20.61
2023-05-09T17:16:48.249Z,20.51
2023-05-09T17:19:16.599Z,20.17
2023-05-09T17:21:43.162Z,20.15
2023-05-09T17:24:09.913Z,19.80
2023-05-09T17:26:36.571Z,19.50
2023-05-09T17:29:14.227Z,18.98
2023-05-09T17:31:41.083Z,18.91
2023-05-09T17:34:07.642Z,18.89
2023-05-09T17:36:35.584Z,18.78
2023-05-09T17:39:02.144Z,18.66
2023-05-09T17:41:28.727Z,18.78
2023-05-09T17:43:55.297Z,18.67
2023-05-09T17:46:22.044Z,18.73
2023-05-09T17:48:48.672Z,18.71
2023-05-09T17:51:15.327Z,18.68
2023-05-09T17:53:43.326Z,18.72
2023-05-09T17:56:09.950Z,18.76
2023-05-09T17:58:36.503Z,18.74
2023-05-09T18:01:03.335Z,18.65
2023-05-09T18:03:29.947Z,18.57
2023-05-09T18:06:02.125Z,18.65
2023-05-09T18:08:28.707Z,18.57
2023-05-09T18:10:57.687Z,18.56
2023-05-09T18:13:24.559Z,18.60
2023-05-09T18:15:51.395Z,18.62
2023-05-09T18:18:18.004Z,18.62
2023-05-09T18:20:44.656Z,18.71
2023-05-09T18:23:11.379Z,18.74
2023-05-09T18:25:37.976Z,18.80
2023-05-09T18:28:06.220Z,18.71
2023-05-09T18:30:32.775Z,18.82
2023-05-09T18:32:59.684Z,18.71
2023-05-09T18:35:26.366Z,18.53
2023-05-09T18:37:52.961Z,18.60
2023-05-09T18:40:19.702Z,18.66
2023-05-09T18:42:46.292Z,18.68
2023-05-09T18:45:14.463Z,18.64
2023-05-09T18:47:41.028Z,18.57
2023-05-09T18:50:08.668Z,18.64
2023-05-09T18:52:35.198Z,18.67
2023-05-09T18:55:01.738Z,18.60
2023-05-09T18:57:28.424Z,18.56
2023-05-09T18:59:55.043Z,18.61
2023-05-09T19:02:23.088Z,18.60
2023-05-09T19:04:49.646Z,18.59
2023-05-09T19:07:16.548Z,18.57
2023-05-09T19:09:43.157Z,18.52
2023-05-09T19:12:09.735Z,18.55
2023-05-09T19:14:36.322Z,18.43
2023-05-09T19:17:03.107Z,18.41
2023-05-09T19:19:31.222Z,18.45
2023-05-09T19:21:57.789Z,18.37
2023-05-09T19:24:24.889Z,18.39
2023-05-09T19:26:51.483Z,18.26
2023-05-09T19:29:18.142Z,18.26
2023-05-09T19:31:44.859Z,18.20
2023-05-09T19:34:11.517Z,18.30
2023-05-09T19:36:39.442Z,18.34
2023-05-09T19:39:05.943Z,18.33
2023-05-09T19:41:32.503Z,18.22
2023-05-09T19:43:59.138Z,18.17
2023-05-09T19:46:25.805Z,18.22
2023-05-09T19:48:52.354Z,18.25
2023-05-09T19:51:19.040Z,18.22
2023-05-09T19:53:47.100Z,18.23
2023-05-09T19:56:13.765Z,18.22
2023-05-09T19:58:40.440Z,18.21
2023-05-09T20:01:07.248Z,18.22
2023-05-09T20:03:34.180Z,18.20
2023-05-09T20:06:00.847Z,17.94
2023-05-09T20:08:27.484Z,17.56
2023-05-09T20:10:55.396Z,17.48
2023-05-09T20:13:22.022Z,17.55
2023-05-09T20:15:48.804Z,17.34
2023-05-09T20:18:15.394Z,17.38
2023-05-09T20:20:42.621Z,17.36
2023-05-09T20:23:09.213Z,17.17
2023-05-09T20:25:35.819Z,17.19
2023-05-09T20:28:03.788Z,17.12
2023-05-09T20:30:30.427Z,17.06
2023-05-09T20:32:57.058Z,17.04
2023-05-09T20:35:23.932Z,17.05
2023-05-09T20:37:50.853Z,17.06
2023-05-09T20:40:17.741Z,17.02
2023-05-09T20:42:44.448Z,16.96
2023-05-09T20:45:12.445Z,17.01
2023-05-09T20:47:39.167Z,17.18
2023-05-09T20:50:06.989Z,17.18
2023-05-09T20:52:33.592Z,17.25
2023-05-09T20:55:00.192Z,17.24
2023-05-09T20:57:26.822Z,17.20
2023-05-09T20:59:53.425Z,17.10
2023-05-09T21:02:21.463Z,17.05
2023-05-09T21:04:48.079Z,17.01
2023-05-09T21:07:14.639Z,17.03
2023-05-09T21:09:41.343Z,16.92
2023-05-09T21:12:09.265Z,17.04
2023-05-09T21:14:37.663Z,17.04
2023-05-09T21:17:04.415Z,17.08
2023-05-09T21:19:32.366Z,17.05
2023-05-09T21:21:58.947Z,17.08
2023-05-09T21:24:25.637Z,17.12
2023-05-09T21:26:52.155Z,16.97
2023-05-09T21:29:19.267Z,16.92
2023-05-09T21:31:45.847Z,16.89
2023-05-09T21:34:12.749Z,16.95
2023-05-09T21:36:41.098Z,16.89
2023-05-09T21:39:08.169Z,16.93
2023-05-09T21:41:34.950Z,17.02
2023-05-09T21:44:01.541Z,16.96
2023-05-09T21:46:28.166Z,16.92
2023-05-09T21:49:12.016Z,16.87
2023-05-09T21:51:38.773Z,16.83
2023-05-09T21:54:06.674Z,17.00
2023-05-09T21:56:33.202Z,16.90
2023-05-09T21:58:59.900Z,16.73
2023-05-09T22:01:26.501Z,16.77
2023-05-09T22:03:53.168Z,16.72
2023-05-09T22:06:19.880Z,16.73
2023-05-09T22:08:46.457Z,16.70
2023-05-09T22:11:15.201Z,16.84
2023-05-09T22:13:41.987Z,16.87
2023-05-09T22:16:08.581Z,16.81
2023-05-09T22:18:35.401Z,16.83
2023-05-09T22:21:01.960Z,16.78
2023-05-09T22:23:28.547Z,16.86
2023-05-09T22:25:55.363Z,16.69
2023-05-09T22:28:23.291Z,16.70
2023-05-09T22:30:49.838Z,16.74
2023-05-09T22:33:16.509Z,16.68
2023-05-09T22:35:43.213Z,16.80
2023-05-09T22:38:09.804Z,16.83
2023-05-09T22:40:36.726Z,16.78
2023-05-09T22:43:03.361Z,16.74
2023-05-09T22:45:31.333Z,16.75
2023-05-09T22:47:58.122Z,16.65
2023-05-09T22:50:24.740Z,16.61
2023-05-09T22:52:51.509Z,16.69
2023-05-09T22:55:18.100Z,16.60
2023-05-09T22:57:44.669Z,16.69
2023-05-09T23:00:12.416Z,16.73
2023-05-09T23:02:40.364Z,16.68
2023-05-09T23:05:07.655Z,16.64
2023-05-09T23:07:34.709Z,16.62
2023-05-09T23:10:01.553Z,16.62
2023-05-09T23:12:28.128Z,16.56
2023-05-09T23:14:54.631Z,16.59
2023-05-09T23:17:21.450Z,16.70
2023-05-09T23:19:49.494Z,16.75
2023-05-09T23:22:16.395Z,16.66
2023-05-09T23:24:42.986Z,16.58
2023-05-09T23:27:09.712Z,16.53
2023-05-09T23:29:36.331Z,16.69
2023-05-09T23:32:02.984Z,16.65
2023-05-09T23:34:29.742Z,16.65
2023-05-09T23:36:57.679Z,16.49
2023-05-09T23:39:24.323Z,16.63
2023-05-09T23:41:51.010Z,16.66
2023-05-09T23:44:17.566Z,16.35
2023-05-09T23:46:44.165Z,16.50
2023-05-09T23:49:10.804Z,16.57
2023-05-09T23:51:38.066Z,16.55
2023-05-09T23:54:06.233Z,16.53
2023-05-09T23:56:32.845Z,16.55
2023-05-09T23:58:59.523Z,16.54
